sensor_id;sensor_type;location;lat;lon;timestamp;P1;durP1;ratioP1;P2;durP2;ratioP2
56401;SDS011;42299;35.160;26.100;2023-01-10T00:01:22;10.35;;;6.55;;
56401;SDS011;42299;35.160;26.100;2023-01-10T00:02:44;9.55;;;6.78;;
56401;SDS011;42299;35.160;26.100;2023-01-10T00:04:06;11.02;;;7.25;;
56401;SDS011;42299;35.160;26.100;2023-01-10T00:05:28;10.07;;;6.90;;
56401;SDS011;42299;35.160;26.100;2023-01-10T00:06:50;9.50;;;6.75;;
56401;SDS011;42299;35.160;26.100;2023-01-10T00:08:15;13.68;;;7.32;;
56401;SDS011;42299;35.160;26.100;2023-01-10T00:09:37;11.10;;;7.78;;
56401;SDS011;42299;35.160;26.100;2023-01-10T00:10:59;11.30;;;7.28;;
56401;SDS011;42299;35.160;26.100;2023-01-10T00:12:43;10.52;;;6.10;;
56401;SDS011;42299;35.160;26.100;2023-01-10T00:14:22;11.18;;;7.63;;
56401;SDS011;42299;35.160;26.100;2023-01-10T00:15:45;11.38;;;7.10;;
56401;SDS011;42299;35.160;26.100;2023-01-10T00:17:08;10.02;;;7.30;;
56401;SDS011;42299;35.160;26.100;2023-01-10T00:18:29;12.57;;;7.93;;
56401;SDS011;42299;35.160;26.100;2023-01-10T00:19:52;10.13;;;7.13;;
56401;SDS011;42299;35.160;26.100;2023-01-10T00:21:14;8.98;;;6.80;;
56401;SDS011;42299;35.160;26.100;2023-01-10T00:22:36;9.93;;;8.25;;
56401;SDS011;42299;35.160;26.100;2023-01-10T00:24:00;9.63;;;7.50;;
56401;SDS011;42299;35.160;26.100;2023-01-10T00:25:36;11.52;;;8.23;;
56401;SDS011;42299;35.160;26.100;2023-01-10T00:27:00;10.98;;;7.93;;
56401;SDS011;42299;35.160;26.100;2023-01-10T00:28:22;12.68;;;8.13;;
56401;SDS011;42299;35.160;26.100;2023-01-10T00:29:45;12.07;;;7.88;;
56401;SDS011;42299;35.160;26.100;2023-01-10T00:31:10;11.50;;;8.30;;
56401;SDS011;42299;35.160;26.100;2023-01-10T00:32:33;11.77;;;8.15;;
56401;SDS011;42299;35.160;26.100;2023-01-10T00:33:55;11.50;;;8.70;;
56401;SDS011;42299;35.160;26.100;2023-01-10T00:35:17;10.68;;;7.57;;
56401;SDS011;42299;35.160;26.100;2023-01-10T00:36:39;10.20;;;8.02;;
56401;SDS011;42299;35.160;26.100;2023-01-10T00:38:01;10.88;;;7.53;;
56401;SDS011;42299;35.160;26.100;2023-01-10T00:39:28;11.23;;;7.18;;
56401;SDS011;42299;35.160;26.100;2023-01-10T00:40:51;11.52;;;7.47;;
56401;SDS011;42299;35.160;26.100;2023-01-10T00:42:13;10.40;;;6.82;;
56401;SDS011;42299;35.160;26.100;2023-01-10T00:43:53;11.07;;;7.03;;
56401;SDS011;42299;35.160;26.100;2023-01-10T00:45:17;10.07;;;7.47;;
56401;SDS011;42299;35.160;26.100;2023-01-10T00:46:40;9.80;;;6.82;;
56401;SDS011;42299;35.160;26.100;2023-01-10T00:48:03;11.57;;;6.68;;
56401;SDS011;42299;35.160;26.100;2023-01-10T00:49:25;10.63;;;7.13;;
56401;SDS011;42299;35.160;26.100;2023-01-10T00:50:46;9.70;;;7.15;;
56401;SDS011;42299;35.160;26.100;2023-01-10T00:52:09;8.43;;;6.55;;
56401;SDS011;42299;35.160;26.100;2023-01-10T00:53:30;10.57;;;6.80;;
56401;SDS011;42299;35.160;26.100;2023-01-10T00:54:54;9.02;;;6.30;;
56401;SDS011;42299;35.160;26.100;2023-01-10T00:56:15;9.93;;;6.22;;
56401;SDS011;42299;35.160;26.100;2023-01-10T00:57:38;8.85;;;6.13;;
56401;SDS011;42299;35.160;26.100;2023-01-10T00:58:59;9.60;;;6.93;;
56401;SDS011;42299;35.160;26.100;2023-01-10T01:00:21;9.23;;;6.00;;
56401;SDS011;42299;35.160;26.100;2023-01-10T01:01:44;9.02;;;6.05;;
56401;SDS011;42299;35.160;26.100;2023-01-10T01:03:05;10.60;;;6.70;;
56401;SDS011;42299;35.160;26.100;2023-01-10T01:04:29;9.90;;;6.50;;
56401;SDS011;42299;35.160;26.100;2023-01-10T01:05:53;7.88;;;6.40;;
56401;SDS011;42299;35.160;26.100;2023-01-10T01:07:15;8.27;;;6.20;;
56401;SDS011;42299;35.160;26.100;2023-01-10T01:08:37;12.05;;;7.10;;
56401;SDS011;42299;35.160;26.100;2023-01-10T01:10:00;8.95;;;6.35;;
56401;SDS011;42299;35.160;26.100;2023-01-10T01:11:51;8.88;;;6.38;;
56401;SDS011;42299;35.160;26.100;2023-01-10T01:13:16;9.38;;;6.45;;
56401;SDS011;42299;35.160;26.100;2023-01-10T01:14:40;9.95;;;6.07;;
56401;SDS011;42299;35.160;26.100;2023-01-10T01:16:02;9.07;;;6.90;;
56401;SDS011;42299;35.160;26.100;2023-01-10T01:17:25;9.07;;;6.95;;
56401;SDS011;42299;35.160;26.100;2023-01-10T01:18:47;9.68;;;6.65;;
56401;SDS011;42299;35.160;26.100;2023-01-10T01:20:09;12.75;;;8.75;;
56401;SDS011;42299;35.160;26.100;2023-01-10T01:21:32;11.68;;;7.57;;
56401;SDS011;42299;35.160;26.100;2023-01-10T01:22:55;10.43;;;7.78;;
56401;SDS011;42299;35.160;26.100;2023-01-10T01:24:17;10.63;;;7.50;;
56401;SDS011;42299;35.160;26.100;2023-01-10T01:25:42;12.40;;;9.40;;
56401;SDS011;42299;35.160;26.100;2023-01-10T01:27:04;10.65;;;8.20;;
56401;SDS011;42299;35.160;26.100;2023-01-10T01:28:26;10.38;;;7.05;;
56401;SDS011;42299;35.160;26.100;2023-01-10T01:29:49;11.35;;;8.50;;
56401;SDS011;42299;35.160;26.100;2023-01-10T01:31:10;9.40;;;7.22;;
56401;SDS011;42299;35.160;26.100;2023-01-10T01:32:32;12.80;;;8.60;;
56401;SDS011;42299;35.160;26.100;2023-01-10T01:33:54;10.85;;;9.38;;
56401;SDS011;42299;35.160;26.100;2023-01-10T01:35:16;12.60;;;9.27;;
56401;SDS011;42299;35.160;26.100;2023-01-10T01:36:39;11.77;;;9.70;;
56401;SDS011;42299;35.160;26.100;2023-01-10T01:38:02;9.30;;;6.70;;
56401;SDS011;42299;35.160;26.100;2023-01-10T01:39:23;11.50;;;7.72;;
56401;SDS011;42299;35.160;26.100;2023-01-10T01:40:47;9.38;;;7.05;;
56401;SDS011;42299;35.160;26.100;2023-01-10T01:42:12;9.50;;;6.13;;
56401;SDS011;42299;35.160;26.100;2023-01-10T01:43:56;11.00;;;6.15;;
56401;SDS011;42299;35.160;26.100;2023-01-10T01:47:11;8.82;;;6.40;;
56401;SDS011;42299;35.160;26.100;2023-01-10T01:48:41;9.95;;;6.95;;
56401;SDS011;42299;35.160;26.100;2023-01-10T01:50:05;11.90;;;6.75;;
56401;SDS011;42299;35.160;26.100;2023-01-10T01:51:33;9.80;;;6.32;;
56401;SDS011;42299;35.160;26.100;2023-01-10T01:52:56;9.13;;;5.72;;
56401;SDS011;42299;35.160;26.100;2023-01-10T01:54:19;10.57;;;6.15;;
56401;SDS011;42299;35.160;26.100;2023-01-10T01:55:42;8.27;;;5.72;;
56401;SDS011;42299;35.160;26.100;2023-01-10T01:57:08;8.73;;;6.00;;
56401;SDS011;42299;35.160;26.100;2023-01-10T01:58:36;8.45;;;5.53;;
56401;SDS011;42299;35.160;26.100;2023-01-10T02:00:03;9.27;;;6.25;;
56401;SDS011;42299;35.160;26.100;2023-01-10T02:01:32;9.98;;;5.82;;
56401;SDS011;42299;35.160;26.100;2023-01-10T02:02:56;9.90;;;5.60;;
56401;SDS011;42299;35.160;26.100;2023-01-10T02:04:21;9.15;;;5.97;;
56401;SDS011;42299;35.160;26.100;2023-01-10T02:05:46;8.45;;;6.25;;
56401;SDS011;42299;35.160;26.100;2023-01-10T02:07:07;10.07;;;6.88;;
56401;SDS011;42299;35.160;26.100;2023-01-10T02:08:31;11.38;;;6.97;;
56401;SDS011;42299;35.160;26.100;2023-01-10T02:11:18;9.98;;;6.75;;
56401;SDS011;42299;35.160;26.100;2023-01-10T02:12:40;7.88;;;5.75;;
56401;SDS011;42299;35.160;26.100;2023-01-10T02:14:05;9.75;;;6.28;;
56401;SDS011;42299;35.160;26.100;2023-01-10T02:15:30;10.18;;;6.43;;
56401;SDS011;42299;35.160;26.100;2023-01-10T02:16:52;10.55;;;6.25;;
56401;SDS011;42299;35.160;26.100;2023-01-10T02:18:14;11.40;;;7.22;;
56401;SDS011;42299;35.160;26.100;2023-01-10T02:19:40;9.13;;;5.85;;
56401;SDS011;42299;35.160;26.100;2023-01-10T02:21:33;9.60;;;5.90;;
56401;SDS011;42299;35.160;26.100;2023-01-10T02:27:16;8.98;;;6.47;;
56401;SDS011;42299;35.160;26.100;2023-01-10T02:28:49;8.98;;;6.07;;
56401;SDS011;42299;35.160;26.100;2023-01-10T02:30:39;11.60;;;6.32;;
56401;SDS011;42299;35.160;26.100;2023-01-10T02:32:18;8.75;;;5.60;;
56401;SDS011;42299;35.160;26.100;2023-01-10T02:33:45;8.23;;;5.43;;
56401;SDS011;42299;35.160;26.100;2023-01-10T02:35:15;9.85;;;6.03;;
56401;SDS011;42299;35.160;26.100;2023-01-10T02:36:47;8.35;;;6.15;;
56401;SDS011;42299;35.160;26.100;2023-01-10T02:38:20;9.00;;;6.50;;
56401;SDS011;42299;35.160;26.100;2023-01-10T02:39:54;11.30;;;6.05;;
56401;SDS011;42299;35.160;26.100;2023-01-10T02:41:21;8.82;;;5.70;;
56401;SDS011;42299;35.160;26.100;2023-01-10T02:42:51;8.00;;;5.72;;
56401;SDS011;42299;35.160;26.100;2023-01-10T02:44:21;8.25;;;5.90;;
56401;SDS011;42299;35.160;26.100;2023-01-10T02:45:50;10.82;;;6.65;;
56401;SDS011;42299;35.160;26.100;2023-01-10T02:47:14;8.23;;;5.57;;
56401;SDS011;42299;35.160;26.100;2023-01-10T02:48:38;8.25;;;5.75;;
56401;SDS011;42299;35.160;26.100;2023-01-10T02:50:15;8.32;;;5.50;;
56401;SDS011;42299;35.160;26.100;2023-01-10T02:51:47;7.95;;;5.57;;
56401;SDS011;42299;35.160;26.100;2023-01-10T02:53:10;9.38;;;6.07;;
56401;SDS011;42299;35.160;26.100;2023-01-10T02:54:36;8.75;;;5.55;;
56401;SDS011;42299;35.160;26.100;2023-01-10T02:56:07;8.75;;;5.07;;
56401;SDS011;42299;35.160;26.100;2023-01-10T02:57:44;8.10;;;4.45;;
56401;SDS011;42299;35.160;26.100;2023-01-10T03:01:15;8.95;;;5.50;;
56401;SDS011;42299;35.160;26.100;2023-01-10T03:02:56;9.25;;;5.45;;
56401;SDS011;42299;35.160;26.100;2023-01-10T03:04:33;7.80;;;5.25;;
56401;SDS011;42299;35.160;26.100;2023-01-10T03:06:08;6.45;;;4.35;;
56401;SDS011;42299;35.160;26.100;2023-01-10T03:07:42;6.93;;;4.80;;
56401;SDS011;42299;35.160;26.100;2023-01-10T03:09:13;7.82;;;4.78;;
56401;SDS011;42299;35.160;26.100;2023-01-10T03:10:43;9.03;;;4.67;;
56401;SDS011;42299;35.160;26.100;2023-01-10T03:12:08;7.03;;;4.78;;
56401;SDS011;42299;35.160;26.100;2023-01-10T03:13:35;7.47;;;4.80;;
56401;SDS011;42299;35.160;26.100;2023-01-10T03:15:02;5.82;;;3.88;;
56401;SDS011;42299;35.160;26.100;2023-01-10T03:16:27;9.00;;;4.55;;
56401;SDS011;42299;35.160;26.100;2023-01-10T03:17:52;7.38;;;3.95;;
56401;SDS011;42299;35.160;26.100;2023-01-10T03:19:19;6.20;;;4.22;;
56401;SDS011;42299;35.160;26.100;2023-01-10T03:20:47;7.53;;;4.47;;
56401;SDS011;42299;35.160;26.100;2023-01-10T03:22:13;7.15;;;4.07;;
56401;SDS011;42299;35.160;26.100;2023-01-10T03:24:57;6.70;;;3.08;;
56401;SDS011;42299;35.160;26.100;2023-01-10T03:26:23;5.18;;;3.70;;
56401;SDS011;42299;35.160;26.100;2023-01-10T03:27:51;6.68;;;4.22;;
56401;SDS011;42299;35.160;26.100;2023-01-10T03:29:20;5.85;;;3.72;;
56401;SDS011;42299;35.160;26.100;2023-01-10T03:30:49;5.47;;;3.35;;
56401;SDS011;42299;35.160;26.100;2023-01-10T03:32:16;5.60;;;3.72;;
56401;SDS011;42299;35.160;26.100;2023-01-10T03:33:42;5.13;;;3.15;;
56401;SDS011;42299;35.160;26.100;2023-01-10T03:35:05;6.13;;;3.38;;
56401;SDS011;42299;35.160;26.100;2023-01-10T03:36:32;5.25;;;3.53;;
56401;SDS011;42299;35.160;26.100;2023-01-10T03:38:02;5.45;;;2.88;;
56401;SDS011;42299;35.160;26.100;2023-01-10T03:39:30;4.93;;;3.00;;
56401;SDS011;42299;35.160;26.100;2023-01-10T03:40:56;7.70;;;3.17;;
56401;SDS011;42299;35.160;26.100;2023-01-10T03:42:25;5.38;;;3.45;;
56401;SDS011;42299;35.160;26.100;2023-01-10T03:44:15;5.70;;;3.03;;
56401;SDS011;42299;35.160;26.100;2023-01-10T03:45:59;4.40;;;2.72;;
56401;SDS011;42299;35.160;26.100;2023-01-10T03:47:25;7.28;;;3.15;;
56401;SDS011;42299;35.160;26.100;2023-01-10T03:48:53;6.53;;;2.92;;
56401;SDS011;42299;35.160;26.100;2023-01-10T03:50:17;5.93;;;2.75;;
56401;SDS011;42299;35.160;26.100;2023-01-10T03:51:43;4.53;;;2.38;;
56401;SDS011;42299;35.160;26.100;2023-01-10T03:53:06;4.65;;;2.60;;
56401;SDS011;42299;35.160;26.100;2023-01-10T03:54:28;5.07;;;2.97;;
56401;SDS011;42299;35.160;26.100;2023-01-10T03:55:51;6.15;;;2.50;;
56401;SDS011;42299;35.160;26.100;2023-01-10T03:57:16;4.78;;;2.30;;
56401;SDS011;42299;35.160;26.100;2023-01-10T03:58:41;6.15;;;2.67;;
56401;SDS011;42299;35.160;26.100;2023-01-10T04:00:04;4.45;;;2.33;;
56401;SDS011;42299;35.160;26.100;2023-01-10T04:01:27;4.78;;;2.70;;
56401;SDS011;42299;35.160;26.100;2023-01-10T04:02:50;6.38;;;4.13;;
56401;SDS011;42299;35.160;26.100;2023-01-10T04:04:13;5.68;;;2.67;;
56401;SDS011;42299;35.160;26.100;2023-01-10T04:05:35;3.25;;;2.05;;
56401;SDS011;42299;35.160;26.100;2023-01-10T04:06:58;5.32;;;2.33;;
56401;SDS011;42299;35.160;26.100;2023-01-10T04:08:20;6.43;;;3.58;;
56401;SDS011;42299;35.160;26.100;2023-01-10T04:09:43;3.70;;;2.50;;
56401;SDS011;42299;35.160;26.100;2023-01-10T04:11:05;7.60;;;4.07;;
56401;SDS011;42299;35.160;26.100;2023-01-10T04:12:26;11.27;;;8.27;;
56401;SDS011;42299;35.160;26.100;2023-01-10T04:13:49;8.65;;;4.85;;
56401;SDS011;42299;35.160;26.100;2023-01-10T04:15:11;10.85;;;6.68;;
56401;SDS011;42299;35.160;26.100;2023-01-10T04:16:33;11.85;;;7.53;;
56401;SDS011;42299;35.160;26.100;2023-01-10T04:17:54;10.85;;;7.68;;
56401;SDS011;42299;35.160;26.100;2023-01-10T04:19:17;9.18;;;6.57;;
56401;SDS011;42299;35.160;26.100;2023-01-10T04:20:39;9.63;;;6.00;;
56401;SDS011;42299;35.160;26.100;2023-01-10T04:22:02;11.98;;;6.30;;
56401;SDS011;42299;35.160;26.100;2023-01-10T04:23:25;11.70;;;8.10;;
56401;SDS011;42299;35.160;26.100;2023-01-10T04:24:46;7.05;;;4.38;;
56401;SDS011;42299;35.160;26.100;2023-01-10T04:26:10;12.32;;;9.60;;
56401;SDS011;42299;35.160;26.100;2023-01-10T04:27:32;12.40;;;8.63;;
56401;SDS011;42299;35.160;26.100;2023-01-10T04:28:54;9.98;;;6.60;;
56401;SDS011;42299;35.160;26.100;2023-01-10T04:30:16;14.25;;;9.90;;
56401;SDS011;42299;35.160;26.100;2023-01-10T04:31:38;11.80;;;7.93;;
56401;SDS011;42299;35.160;26.100;2023-01-10T04:33:01;7.53;;;4.93;;
56401;SDS011;42299;35.160;26.100;2023-01-10T04:34:23;14.60;;;9.48;;
56401;SDS011;42299;35.160;26.100;2023-01-10T04:35:46;10.25;;;4.93;;
56401;SDS011;42299;35.160;26.100;2023-01-10T04:37:09;9.75;;;5.50;;
56401;SDS011;42299;35.160;26.100;2023-01-10T04:38:31;10.32;;;4.75;;
56401;SDS011;42299;35.160;26.100;2023-01-10T04:39:54;11.32;;;7.30;;
56401;SDS011;42299;35.160;26.100;2023-01-10T04:41:16;11.80;;;5.88;;
56401;SDS011;42299;35.160;26.100;2023-01-10T04:42:39;8.00;;;6.60;;
56401;SDS011;42299;35.160;26.100;2023-01-10T04:44:02;10.25;;;5.78;;
56401;SDS011;42299;35.160;26.100;2023-01-10T04:45:25;8.93;;;4.82;;
56401;SDS011;42299;35.160;26.100;2023-01-10T04:46:46;9.20;;;4.72;;
56401;SDS011;42299;35.160;26.100;2023-01-10T04:48:09;8.20;;;4.80;;
56401;SDS011;42299;35.160;26.100;2023-01-10T04:49:30;6.85;;;4.03;;
56401;SDS011;42299;35.160;26.100;2023-01-10T04:50:52;9.00;;;4.22;;
56401;SDS011;42299;35.160;26.100;2023-01-10T04:52:16;10.10;;;4.88;;
56401;SDS011;42299;35.160;26.100;2023-01-10T04:53:39;8.52;;;6.30;;
56401;SDS011;42299;35.160;26.100;2023-01-10T04:55:02;16.63;;;6.07;;
56401;SDS011;42299;35.160;26.100;2023-01-10T04:56:25;9.07;;;6.13;;
56401;SDS011;42299;35.160;26.100;2023-01-10T04:57:46;11.27;;;8.48;;
56401;SDS011;42299;35.160;26.100;2023-01-10T04:59:09;9.13;;;5.68;;
56401;SDS011;42299;35.160;26.100;2023-01-10T05:00:31;7.65;;;4.90;;
56401;SDS011;42299;35.160;26.100;2023-01-10T05:01:55;8.43;;;5.43;;
56401;SDS011;42299;35.160;26.100;2023-01-10T05:03:17;11.07;;;7.70;;
56401;SDS011;42299;35.160;26.100;2023-01-10T05:04:39;13.20;;;7.45;;
56401;SDS011;42299;35.160;26.100;2023-01-10T05:06:02;12.98;;;8.57;;
56401;SDS011;42299;35.160;26.100;2023-01-10T05:07:25;12.25;;;9.00;;
56401;SDS011;42299;35.160;26.100;2023-01-10T05:08:47;13.90;;;9.98;;
56401;SDS011;42299;35.160;26.100;2023-01-10T05:10:10;17.48;;;13.80;;
56401;SDS011;42299;35.160;26.100;2023-01-10T05:11:32;17.10;;;14.57;;
56401;SDS011;42299;35.160;26.100;2023-01-10T05:12:54;26.85;;;21.00;;
56401;SDS011;42299;35.160;26.100;2023-01-10T05:14:17;25.35;;;22.58;;
56401;SDS011;42299;35.160;26.100;2023-01-10T05:15:40;26.25;;;23.45;;
56401;SDS011;42299;35.160;26.100;2023-01-10T05:17:02;17.48;;;12.95;;
56401;SDS011;42299;35.160;26.100;2023-01-10T05:18:25;20.45;;;15.95;;
56401;SDS011;42299;35.160;26.100;2023-01-10T05:19:48;16.60;;;13.63;;
56401;SDS011;42299;35.160;26.100;2023-01-10T05:21:11;18.77;;;15.80;;
56401;SDS011;42299;35.160;26.100;2023-01-10T05:22:35;19.85;;;17.23;;
56401;SDS011;42299;35.160;26.100;2023-01-10T05:23:58;23.83;;;19.90;;
56401;SDS011;42299;35.160;26.100;2023-01-10T05:25:21;15.43;;;10.70;;
56401;SDS011;42299;35.160;26.100;2023-01-10T05:26:43;12.45;;;7.00;;
56401;SDS011;42299;35.160;26.100;2023-01-10T05:28:08;14.00;;;10.02;;
56401;SDS011;42299;35.160;26.100;2023-01-10T05:29:29;8.82;;;5.85;;
56401;SDS011;42299;35.160;26.100;2023-01-10T05:30:53;8.75;;;5.97;;
56401;SDS011;42299;35.160;26.100;2023-01-10T05:32:14;7.47;;;4.85;;
56401;SDS011;42299;35.160;26.100;2023-01-10T05:33:37;5.00;;;3.63;;
56401;SDS011;42299;35.160;26.100;2023-01-10T05:34:58;5.43;;;3.42;;
56401;SDS011;42299;35.160;26.100;2023-01-10T05:36:21;5.45;;;3.13;;
56401;SDS011;42299;35.160;26.100;2023-01-10T05:37:45;5.97;;;2.95;;
56401;SDS011;42299;35.160;26.100;2023-01-10T05:39:07;8.93;;;5.05;;
56401;SDS011;42299;35.160;26.100;2023-01-10T05:40:30;9.48;;;5.55;;
56401;SDS011;42299;35.160;26.100;2023-01-10T05:41:52;6.25;;;3.33;;
56401;SDS011;42299;35.160;26.100;2023-01-10T05:43:14;13.27;;;11.32;;
56401;SDS011;42299;35.160;26.100;2023-01-10T05:44:36;19.75;;;12.82;;
56401;SDS011;42299;35.160;26.100;2023-01-10T05:45:58;12.25;;;9.40;;
56401;SDS011;42299;35.160;26.100;2023-01-10T05:47:21;6.85;;;4.45;;
56401;SDS011;42299;35.160;26.100;2023-01-10T05:48:42;6.70;;;4.10;;
56401;SDS011;42299;35.160;26.100;2023-01-10T05:50:05;13.00;;;8.98;;
56401;SDS011;42299;35.160;26.100;2023-01-10T05:51:27;10.98;;;9.00;;
56401;SDS011;42299;35.160;26.100;2023-01-10T05:52:51;11.20;;;7.07;;
56401;SDS011;42299;35.160;26.100;2023-01-10T05:54:13;6.45;;;3.85;;
56401;SDS011;42299;35.160;26.100;2023-01-10T05:55:36;9.25;;;4.43;;
56401;SDS011;42299;35.160;26.100;2023-01-10T05:56:57;8.30;;;5.05;;
56401;SDS011;42299;35.160;26.100;2023-01-10T05:58:19;7.13;;;3.70;;
56401;SDS011;42299;35.160;26.100;2023-01-10T05:59:42;6.28;;;3.30;;
56401;SDS011;42299;35.160;26.100;2023-01-10T06:01:04;10.57;;;8.23;;
56401;SDS011;42299;35.160;26.100;2023-01-10T06:02:26;22.13;;;19.83;;
56401;SDS011;42299;35.160;26.100;2023-01-10T06:03:48;19.58;;;16.38;;
56401;SDS011;42299;35.160;26.100;2023-01-10T06:05:10;29.73;;;26.58;;
56401;SDS011;42299;35.160;26.100;2023-01-10T06:06:33;21.27;;;18.73;;
56401;SDS011;42299;35.160;26.100;2023-01-10T06:07:58;27.17;;;22.73;;
56401;SDS011;42299;35.160;26.100;2023-01-10T06:09:20;32.35;;;27.60;;
56401;SDS011;42299;35.160;26.100;2023-01-10T06:10:41;23.33;;;17.42;;
56401;SDS011;42299;35.160;26.100;2023-01-10T06:12:04;10.27;;;8.05;;
56401;SDS011;42299;35.160;26.100;2023-01-10T06:13:27;8.82;;;5.63;;
56401;SDS011;42299;35.160;26.100;2023-01-10T06:14:49;11.65;;;7.03;;
56401;SDS011;42299;35.160;26.100;2023-01-10T06:16:10;7.88;;;4.82;;
56401;SDS011;42299;35.160;26.100;2023-01-10T06:17:32;14.63;;;11.15;;
56401;SDS011;42299;35.160;26.100;2023-01-10T06:18:55;10.18;;;6.88;;
56401;SDS011;42299;35.160;26.100;2023-01-10T06:20:16;6.35;;;3.67;;
56401;SDS011;42299;35.160;26.100;2023-01-10T06:21:39;5.32;;;3.10;;
56401;SDS011;42299;35.160;26.100;2023-01-10T06:23:01;4.70;;;2.08;;
56401;SDS011;42299;35.160;26.100;2023-01-10T06:24:24;5.53;;;2.42;;
56401;SDS011;42299;35.160;26.100;2023-01-10T06:25:45;6.93;;;4.28;;
56401;SDS011;42299;35.160;26.100;2023-01-10T06:27:07;8.95;;;4.30;;
56401;SDS011;42299;35.160;26.100;2023-01-10T06:28:30;5.60;;;3.17;;
56401;SDS011;42299;35.160;26.100;2023-01-10T06:29:52;7.38;;;3.72;;
56401;SDS011;42299;35.160;26.100;2023-01-10T06:31:14;6.43;;;3.83;;
56401;SDS011;42299;35.160;26.100;2023-01-10T06:32:37;6.32;;;2.60;;
56401;SDS011;42299;35.160;26.100;2023-01-10T06:33:58;4.63;;;2.60;;
56401;SDS011;42299;35.160;26.100;2023-01-10T06:35:21;4.13;;;2.10;;
56401;SDS011;42299;35.160;26.100;2023-01-10T06:36:43;5.03;;;2.50;;
56401;SDS011;42299;35.160;26.100;2023-01-10T06:38:08;5.90;;;2.05;;
56401;SDS011;42299;35.160;26.100;2023-01-10T06:39:30;5.90;;;2.78;;
56401;SDS011;42299;35.160;26.100;2023-01-10T06:40:52;6.22;;;2.97;;
56401;SDS011;42299;35.160;26.100;2023-01-10T06:42:15;5.20;;;2.83;;
56401;SDS011;42299;35.160;26.100;2023-01-10T06:43:37;11.95;;;7.68;;
56401;SDS011;42299;35.160;26.100;2023-01-10T06:45:00;20.13;;;15.45;;
56401;SDS011;42299;35.160;26.100;2023-01-10T06:46:24;10.23;;;8.05;;
56401;SDS011;42299;35.160;26.100;2023-01-10T06:47:46;6.95;;;3.78;;
56401;SDS011;42299;35.160;26.100;2023-01-10T06:49:07;4.38;;;2.58;;
56401;SDS011;42299;35.160;26.100;2023-01-10T06:50:30;7.10;;;2.30;;
56401;SDS011;42299;35.160;26.100;2023-01-10T06:51:52;7.43;;;3.42;;
56401;SDS011;42299;35.160;26.100;2023-01-10T06:53:16;4.15;;;2.47;;
56401;SDS011;42299;35.160;26.100;2023-01-10T06:54:38;3.67;;;2.28;;
56401;SDS011;42299;35.160;26.100;2023-01-10T06:56:01;4.47;;;2.50;;
56401;SDS011;42299;35.160;26.100;2023-01-10T06:57:25;5.18;;;2.10;;
56401;SDS011;42299;35.160;26.100;2023-01-10T06:58:48;5.75;;;2.15;;
56401;SDS011;42299;35.160;26.100;2023-01-10T07:00:11;4.75;;;2.53;;
56401;SDS011;42299;35.160;26.100;2023-01-10T07:01:34;3.40;;;1.95;;
56401;SDS011;42299;35.160;26.100;2023-01-10T07:02:58;5.72;;;2.42;;
56401;SDS011;42299;35.160;26.100;2023-01-10T07:04:21;4.68;;;2.58;;
56401;SDS011;42299;35.160;26.100;2023-01-10T07:05:43;5.38;;;2.63;;
56401;SDS011;42299;35.160;26.100;2023-01-10T07:07:06;6.57;;;3.97;;
56401;SDS011;42299;35.160;26.100;2023-01-10T07:08:30;6.85;;;3.88;;
56401;SDS011;42299;35.160;26.100;2023-01-10T07:09:53;5.40;;;2.53;;
56401;SDS011;42299;35.160;26.100;2023-01-10T07:11:15;7.90;;;2.78;;
56401;SDS011;42299;35.160;26.100;2023-01-10T07:12:38;6.47;;;2.50;;
56401;SDS011;42299;35.160;26.100;2023-01-10T07:13:59;5.53;;;2.80;;
56401;SDS011;42299;35.160;26.100;2023-01-10T07:15:22;6.07;;;2.38;;
56401;SDS011;42299;35.160;26.100;2023-01-10T07:16:45;4.65;;;2.50;;
56401;SDS011;42299;35.160;26.100;2023-01-10T07:18:07;7.32;;;2.00;;
56401;SDS011;42299;35.160;26.100;2023-01-10T07:19:29;6.57;;;2.70;;
56401;SDS011;42299;35.160;26.100;2023-01-10T07:20:51;5.43;;;2.50;;
56401;SDS011;42299;35.160;26.100;2023-01-10T07:22:14;4.25;;;2.28;;
56401;SDS011;42299;35.160;26.100;2023-01-10T07:23:38;4.22;;;2.38;;
56401;SDS011;42299;35.160;26.100;2023-01-10T07:25:02;4.22;;;2.15;;
56401;SDS011;42299;35.160;26.100;2023-01-10T07:26:26;4.28;;;2.40;;
56401;SDS011;42299;35.160;26.100;2023-01-10T07:27:49;6.95;;;1.95;;
56401;SDS011;42299;35.160;26.100;2023-01-10T07:29:11;6.32;;;2.03;;
56401;SDS011;42299;35.160;26.100;2023-01-10T07:30:33;5.97;;;2.42;;
56401;SDS011;42299;35.160;26.100;2023-01-10T07:31:57;5.53;;;2.47;;
56401;SDS011;42299;35.160;26.100;2023-01-10T07:33:19;3.75;;;2.00;;
56401;SDS011;42299;35.160;26.100;2023-01-10T07:34:40;8.82;;;2.20;;
56401;SDS011;42299;35.160;26.100;2023-01-10T07:36:03;4.50;;;2.17;;
56401;SDS011;42299;35.160;26.100;2023-01-10T07:37:26;5.07;;;2.10;;
56401;SDS011;42299;35.160;26.100;2023-01-10T07:38:50;7.40;;;3.30;;
56401;SDS011;42299;35.160;26.100;2023-01-10T07:40:13;6.28;;;2.08;;
56401;SDS011;42299;35.160;26.100;2023-01-10T07:41:35;5.57;;;2.28;;
56401;SDS011;42299;35.160;26.100;2023-01-10T07:42:58;4.00;;;1.85;;
56401;SDS011;42299;35.160;26.100;2023-01-10T07:44:22;9.07;;;3.35;;
56401;SDS011;42299;35.160;26.100;2023-01-10T07:45:44;4.97;;;2.53;;
56401;SDS011;42299;35.160;26.100;2023-01-10T07:47:06;4.50;;;1.95;;
56401;SDS011;42299;35.160;26.100;2023-01-10T07:48:29;5.70;;;2.40;;
56401;SDS011;42299;35.160;26.100;2023-01-10T07:49:52;3.65;;;1.90;;
56401;SDS011;42299;35.160;26.100;2023-01-10T07:51:15;5.20;;;2.05;;
56401;SDS011;42299;35.160;26.100;2023-01-10T07:52:37;3.88;;;2.50;;
56401;SDS011;42299;35.160;26.100;2023-01-10T07:54:01;9.80;;;2.55;;
56401;SDS011;42299;35.160;26.100;2023-01-10T07:55:24;6.53;;;2.38;;
56401;SDS011;42299;35.160;26.100;2023-01-10T07:56:47;4.75;;;2.20;;
56401;SDS011;42299;35.160;26.100;2023-01-10T07:58:10;6.97;;;2.30;;
56401;SDS011;42299;35.160;26.100;2023-01-10T07:59:32;2.53;;;1.50;;
56401;SDS011;42299;35.160;26.100;2023-01-10T08:00:56;5.10;;;2.90;;
56401;SDS011;42299;35.160;26.100;2023-01-10T08:02:19;4.85;;;2.53;;
56401;SDS011;42299;35.160;26.100;2023-01-10T08:03:41;5.88;;;1.98;;
56401;SDS011;42299;35.160;26.100;2023-01-10T08:05:04;3.63;;;1.95;;
56401;SDS011;42299;35.160;26.100;2023-01-10T08:06:26;5.05;;;2.15;;
56401;SDS011;42299;35.160;26.100;2023-01-10T08:07:49;3.63;;;1.98;;
56401;SDS011;42299;35.160;26.100;2023-01-10T08:09:13;6.45;;;1.75;;
56401;SDS011;42299;35.160;26.100;2023-01-10T08:10:36;4.13;;;1.50;;
56401;SDS011;42299;35.160;26.100;2023-01-10T08:12:00;3.30;;;1.95;;
56401;SDS011;42299;35.160;26.100;2023-01-10T08:13:22;4.03;;;2.17;;
56401;SDS011;42299;35.160;26.100;2023-01-10T08:14:45;4.90;;;2.20;;
56401;SDS011;42299;35.160;26.100;2023-01-10T08:16:07;4.30;;;1.80;;
56401;SDS011;42299;35.160;26.100;2023-01-10T08:17:31;4.70;;;1.98;;
56401;SDS011;42299;35.160;26.100;2023-01-10T08:18:54;2.88;;;1.70;;
56401;SDS011;42299;35.160;26.100;2023-01-10T08:20:17;3.70;;;1.88;;
56401;SDS011;42299;35.160;26.100;2023-01-10T08:21:39;5.60;;;2.15;;
56401;SDS011;42299;35.160;26.100;2023-01-10T08:23:01;2.17;;;1.50;;
56401;SDS011;42299;35.160;26.100;2023-01-10T08:24:26;9.20;;;2.00;;
56401;SDS011;42299;35.160;26.100;2023-01-10T08:25:48;3.45;;;1.73;;
56401;SDS011;42299;35.160;26.100;2023-01-10T08:27:11;5.07;;;1.85;;
56401;SDS011;42299;35.160;26.100;2023-01-10T08:28:33;4.53;;;2.67;;